Time;durP1;ratioP1;P1;durP2;ratioP2;P2;SDS_P1;SDS_P2;PMS_P1;PMS_P2;Temp;Humidity;BMP_temperature;BMP_pressure;BME280_temperature;BME280_humidity;BME280_pressure;Samples;Min_cycle;Max_cycle;Signal;HPM_P1;HPM_P2
2021/05/27 00:01:24;;;;;;;3.17;2.95;;;;;;;8.93;100.00;96455.28;5001710;28;21252;-64
2021/05/27 00:03:53;;;;;;;3.22;3.03;;;;;;;8.97;100.00;96451.41;4999413;28;20094;-64
2021/05/27 00:06:21;;;;;;;3.03;2.60;;;;;;;8.92;100.00;96452.78;5005212;28;20088;-63
2021/05/27 00:08:49;;;;;;;3.35;3.05;;;;;;;8.90;100.00;96455.53;4985708;28;20080;-63
2021/05/27 00:11:17;;;;;;;2.65;2.45;;;;;;;8.88;100.00;96452.25;5005047;28;20054;-63
2021/05/27 00:13:45;;;;;;;3.17;2.97;;;;;;;8.99;100.00;96453.91;4982627;28;20065;-64
2021/05/27 00:16:13;;;;;;;3.20;2.90;;;;;;;9.02;100.00;96453.66;5002244;28;20061;-64
2021/05/27 00:18:41;;;;;;;3.00;2.80;;;;;;;9.01;100.00;96457.22;5004269;28;20082;-64
2021/05/27 00:21:10;;;;;;;3.17;2.78;;;;;;;8.99;100.00;96453.91;5005147;28;20092;-63
2021/05/27 00:23:38;;;;;;;3.20;2.90;;;;;;;9.01;100.00;96451.97;4999700;28;20061;-64
2021/05/27 00:26:06;;;;;;;3.35;3.05;;;;;;;9.18;100.00;96442.59;5004223;28;20114;-64
2021/05/27 00:28:34;;;;;;;3.97;3.28;;;;;;;9.13;100.00;96447.44;4998856;28;20065;-64
2021/05/27 00:31:02;;;;;;;3.65;2.67;;;;;;;9.14;100.00;96438.56;5000388;28;20653;-64
2021/05/27 00:33:31;;;;;;;3.15;2.83;;;;;;;9.12;100.00;96438.72;4986080;28;20076;-63
2021/05/27 00:35:59;;;;;;;3.17;2.85;;;;;;;9.19;100.00;96439.00;4997016;28;20077;-64
2021/05/27 00:38:28;;;;;;;2.78;2.58;;;;;;;9.17;100.00;96438.31;4982816;28;20065;-63
2021/05/27 00:40:56;;;;;;;3.70;2.72;;;;;;;9.23;100.00;96446.47;5004030;28;20073;-64
2021/05/27 00:43:24;;;;;;;3.22;2.65;;;;;;;9.11;100.00;96444.94;5002113;28;20561;-64
2021/05/27 00:45:52;;;;;;;3.60;2.83;;;;;;;9.28;100.00;96443.44;5008066;28;20092;-64
2021/05/27 00:51:06;;;;;;;3.15;2.85;;;;;;;9.24;100.00;96449.94;5002535;28;20136;-64
2021/05/27 00:53:36;;;;;;;5.10;3.13;;;;;;;9.12;100.00;96451.88;4999144;28;20058;-63
2021/05/27 00:56:04;;;;;;;3.40;3.10;;;;;;;9.24;100.00;96458.66;5001353;28;20053;-63
2021/05/27 00:58:32;;;;;;;3.03;2.72;;;;;;;9.22;100.00;96452.72;4998019;28;20058;-64
2021/05/27 01:01:00;;;;;;;4.03;3.00;;;;;;;9.18;100.00;96456.56;4981882;28;20058;-64
2021/05/27 01:03:28;;;;;;;3.25;2.92;;;;;;;9.26;100.00;96456.75;4984537;28;20081;-64
2021/05/27 01:05:56;;;;;;;3.50;3.20;;;;;;;9.23;100.00;96456.19;4980847;28;20081;-64
2021/05/27 01:08:25;;;;;;;3.47;3.17;;;;;;;9.30;100.00;96454.66;4986208;28;20551;-64
2021/05/27 01:10:53;;;;;;;3.03;2.75;;;;;;;9.23;100.00;96450.91;5001476;28;20523;-64
2021/05/27 01:13:21;;;;;;;4.97;3.17;;;;;;;9.19;100.00;96465.31;5002335;28;20084;-63
2021/05/27 01:15:49;;;;;;;3.67;3.38;;;;;;;9.20;100.00;96467.81;4984709;28;20074;-64
2021/05/27 01:18:19;;;;;;;3.45;3.15;;;;;;;9.15;100.00;96472.66;5007121;28;20566;-64
2021/05/27 01:20:49;;;;;;;4.68;3.33;;;;;;;9.27;100.00;96468.09;5002103;28;20092;-64
2021/05/27 01:23:19;;;;;;;3.90;3.30;;;;;;;9.19;100.00;96465.31;5003658;28;20058;-64
2021/05/27 01:25:49;;;;;;;3.80;3.40;;;;;;;9.15;100.00;96463.91;4988354;28;20122;-64
2021/05/27 01:28:17;;;;;;;3.83;3.15;;;;;;;9.17;100.00;96468.06;5001380;28;20062;-64
2021/05/27 01:30:46;;;;;;;4.18;3.88;;;;;;;9.06;100.00;96470.00;5003252;28;20473;-63
2021/05/27 01:33:15;;;;;;;3.67;3.15;;;;;;;9.20;100.00;96469.59;5006271;28;20073;-63
2021/05/27 01:35:44;;;;;;;3.50;3.20;;;;;;;9.06;100.00;96470.81;4987405;28;20065;-63
2021/05/27 01:38:14;;;;;;;5.72;3.88;;;;;;;9.14;100.00;96478.03;5001846;28;20068;-64
2021/05/27 01:40:43;;;;;;;4.97;3.78;;;;;;;9.10;100.00;96474.00;4988423;28;20073;-64
2021/05/27 01:43:12;;;;;;;3.63;3.33;;;;;;;9.19;100.00;96466.16;5003931;28;20144;-64
2021/05/27 01:45:40;;;;;;;3.70;3.40;;;;;;;9.17;100.00;96464.63;5003199;28;20511;-62
2021/05/27 01:48:09;;;;;;;5.10;3.28;;;;;;;9.21;100.00;96487.88;5007332;28;20050;-64
2021/05/27 01:50:40;;;;;;;4.20;3.40;;;;;;;9.17;100.00;96489.13;5001495;28;20072;-64
2021/05/27 01:53:08;;;;;;;3.70;3.40;;;;;;;9.16;100.00;96491.91;5006170;28;20077;-63
2021/05/27 01:55:41;;;;;;;3.20;2.92;;;;;;;9.07;100.00;96488.25;4999697;28;20437;-63
2021/05/27 01:58:10;;;;;;;3.55;3.25;;;;;;;9.11;100.00;96484.38;5002239;28;20065;-63
2021/05/27 02:00:39;;;;;;;3.92;3.45;;;;;;;9.05;100.00;96492.84;4993189;28;20141;-63
2021/05/27 02:03:07;;;;;;;2.83;2.63;;;;;;;9.01;100.00;96488.78;4999121;28;20512;-63
2021/05/27 02:05:35;;;;;;;3.38;3.10;;;;;;;9.03;100.00;96485.06;5001268;28;20092;-63
2021/05/27 02:08:03;;;;;;;3.90;2.90;;;;;;;8.97;100.00;96475.09;5007929;28;20073;-63
2021/05/27 02:10:32;;;;;;;3.33;2.90;;;;;;;8.97;100.00;96480.34;4987952;28;20069;-63
2021/05/27 02:13:00;;;;;;;2.95;2.75;;;;;;;8.92;100.00;96485.19;5000389;28;20128;-63
2021/05/27 02:15:30;;;;;;;3.15;2.88;;;;;;;8.97;100.00;96490.03;5005971;28;20057;-62
2021/05/27 02:17:58;;;;;;;2.92;2.70;;;;;;;9.06;100.00;96488.41;4985310;28;20076;-63
2021/05/27 02:20:26;;;;;;;3.05;2.85;;;;;;;9.06;100.00;96485.78;5001685;28;20034;-62
2021/05/27 02:22:54;;;;;;;4.32;2.95;;;;;;;8.99;100.00;96496.84;5003716;28;20124;-63
2021/05/27 02:25:22;;;;;;;4.68;2.97;;;;;;;9.04;100.00;96489.34;5000691;28;20069;-63
2021/05/27 02:27:50;;;;;;;3.17;2.90;;;;;;;8.86;100.00;96500.66;5005960;28;20066;-63
2021/05/27 02:30:19;;;;;;;3.85;3.25;;;;;;;8.91;100.00;96494.06;4985024;28;20061;-60
2021/05/27 02:32:48;;;;;;;3.35;2.65;;;;;;;9.00;100.00;96500.28;5000613;28;20065;-63
2021/05/27 02:35:16;;;;;;;3.00;2.80;;;;;;;8.97;100.00;96500.56;5004852;28;20057;-63
2021/05/27 02:37:44;;;;;;;3.33;3.03;;;;;;;9.00;100.00;96501.13;5002950;28;20058;-63
2021/05/27 02:40:13;;;;;;;3.53;2.75;;;;;;;8.90;100.00;96496.78;4999763;28;20119;-63
2021/05/27 02:42:42;;;;;;;4.55;3.30;;;;;;;9.04;100.00;96497.25;5009144;28;20566;-63
2021/05/27 02:45:12;;;;;;;4.13;3.17;;;;;;;8.93;100.00;96504.41;4986705;28;20476;-63
2021/05/27 02:47:43;;;;;;;3.42;2.75;;;;;;;9.07;100.00;96501.41;5003515;28;20081;-63
2021/05/27 02:50:13;;;;;;;3.67;3.30;;;;;;;8.98;100.00;96491.69;4998816;28;20062;-63
2021/05/27 02:52:41;;;;;;;2.88;2.67;;;;;;;9.01;100.00;96496.69;5003990;28;20057;-63
2021/05/27 02:55:10;;;;;;;4.15;3.10;;;;;;;9.03;100.00;96492.97;5003594;28;20069;-63
2021/05/27 02:57:38;;;;;;;3.85;3.40;;;;;;;8.98;100.00;96494.31;5005086;28;20089;-63
2021/05/27 03:00:08;;;;;;;3.65;3.35;;;;;;;8.94;100.00;96498.19;4978276;28;20081;-63
2021/05/27 03:02:36;;;;;;;3.50;3.17;;;;;;;8.94;100.00;96485.88;4999225;28;20058;-63
2021/05/27 03:05:05;;;;;;;3.35;3.05;;;;;;;9.06;100.00;96491.88;5004034;28;20065;-63
2021/05/27 03:07:34;;;;;;;3.70;2.85;;;;;;;8.88;100.00;96504.81;5001276;28;20045;-63
2021/05/27 03:10:03;;;;;;;3.20;2.90;;;;;;;8.99;100.00;96502.09;5002890;28;20081;-63
2021/05/27 03:12:31;;;;;;;3.72;3.30;;;;;;;8.89;100.00;96509.13;5005247;28;20461;-63
2021/05/27 03:14:59;;;;;;;3.38;2.92;;;;;;;8.82;100.00;96509.78;5001527;28;20070;-63
2021/05/27 03:17:27;;;;;;;3.65;3.35;;;;;;;8.84;100.00;96508.66;5001244;28;20066;-63
2021/05/27 03:19:55;;;;;;;3.00;2.80;;;;;;;8.89;100.00;96508.28;5001156;28;20547;-63
2021/05/27 03:22:23;;;;;;;4.20;3.80;;;;;;;8.94;100.00;96506.06;5003810;28;20069;-63
2021/05/27 03:24:52;;;;;;;3.78;3.47;;;;;;;8.97;100.00;96506.63;5006889;28;20084;-61
2021/05/27 03:27:20;;;;;;;3.50;3.20;;;;;;;8.77;100.00;96513.66;5002521;28;21139;-63
2021/05/27 03:29:48;;;;;;;5.07;3.45;;;;;;;8.86;100.00;96516.44;5002668;28;20591;-63
2021/05/27 03:32:16;;;;;;;4.00;3.10;;;;;;;8.79;100.00;96510.88;5000361;28;20065;-63
2021/05/27 03:34:44;;;;;;;4.25;3.10;;;;;;;8.82;100.00;96513.25;4998199;28;20743;-63
2021/05/27 03:37:12;;;;;;;3.22;2.90;;;;;;;8.89;100.00;96513.53;5004430;28;20066;-63
2021/05/27 03:40:09;;;;;;;3.45;3.15;;;;;;;8.90;100.00;96526.56;5002534;28;20074;-63
2021/05/27 03:42:29;;;;;;;3.70;3.13;;;;;;;8.88;100.00;96514.50;4996035;28;20713;-63
2021/05/27 03:44:57;;;;;;;3.15;2.85;;;;;;;8.82;100.00;96523.75;5002151;28;20065;-63
2021/05/27 03:47:25;;;;;;;3.88;3.20;;;;;;;8.99;100.00;96525.75;5002914;28;20069;-63
2021/05/27 03:49:53;;;;;;;4.18;3.78;;;;;;;8.89;100.00;96522.25;5003501;28;20072;-63
2021/05/27 03:52:22;;;;;;;3.38;3.00;;;;;;;8.99;100.00;96522.31;5002396;28;20096;-64
2021/05/27 03:54:49;;;;;;;4.32;3.42;;;;;;;8.92;100.00;96523.81;5003042;28;20093;-63
2021/05/27 03:57:17;;;;;;;4.75;3.45;;;;;;;8.99;100.00;96523.13;5003955;28;20300;-63
2021/05/27 04:02:33;;;;;;;3.70;3.40;;;;;;;8.96;100.00;96528.66;4999979;28;20073;-63
2021/05/27 04:07:47;;;;;;;3.10;2.90;;;;;;;8.99;100.00;96527.56;4999133;28;20142;-63
2021/05/27 04:10:15;;;;;;;3.38;3.15;;;;;;;9.08;100.00;96526.75;5003402;28;20461;-63
2021/05/27 04:12:46;;;;;;;3.35;3.05;;;;;;;8.94;100.00;96524.50;5004721;28;20480;-63
2021/05/27 04:15:23;;;;;;;3.47;3.17;;;;;;;9.08;100.00;96510.97;5002316;28;20109;-63
2021/05/27 04:17:59;;;;;;;3.22;2.97;;;;;;;9.21;100.00;96505.47;5001950;28;20077;-63
2021/05/27 04:20:29;;;;;;;3.50;3.20;;;;;;;9.14;100.00;96510.44;4998082;28;20081;-63
2021/05/27 04:22:57;;;;;;;3.38;3.08;;;;;;;9.05;100.00;96508.63;5001610;28;20073;-63
2021/05/27 04:25:26;;;;;;;3.25;2.95;;;;;;;9.02;100.00;96501.00;5001971;28;20543;-63
2021/05/27 04:27:55;;;;;;;3.35;3.05;;;;;;;9.23;100.00;96500.91;4999759;28;20112;-63
2021/05/27 04:30:26;;;;;;;3.50;3.20;;;;;;;9.10;100.00;96503.78;5001823;28;20558;-63
2021/05/27 04:33:02;;;;;;;2.83;2.50;;;;;;;9.42;100.00;96500.94;5001588;28;20068;-63
2021/05/27 04:35:34;;;;;;;5.25;2.88;;;;;;;9.36;100.00;96482.22;5003580;28;20053;-63
2021/05/27 04:38:06;;;;;;;3.42;2.80;;;;;;;9.63;100.00;96489.44;5001479;28;20548;-63
2021/05/27 04:40:34;;;;;;;3.22;2.80;;;;;;;9.62;100.00;96488.63;4998271;28;20096;-64
2021/05/27 04:43:02;;;;;;;3.20;2.90;;;;;;;9.45;100.00;96494.56;5003529;28;20085;-63
2021/05/27 04:45:31;;;;;;;4.53;3.15;;;;;;;9.49;100.00;96488.06;5004415;28;20077;-63
2021/05/27 04:47:59;;;;;;;4.43;3.00;;;;;;;9.43;100.00;96499.16;5000041;28;20519;-63
2021/05/27 04:50:27;;;;;;;3.38;3.08;;;;;;;9.50;100.00;96500.28;5003806;28;20038;-63
2021/05/27 04:52:55;;;;;;;3.38;3.08;;;;;;;9.58;100.00;96508.31;4999095;28;21251;-63
2021/05/27 04:55:24;;;;;;;3.67;3.33;;;;;;;9.55;100.00;96513.00;5001450;28;20080;-63
2021/05/27 04:57:51;;;;;;;3.15;2.95;;;;;;;9.50;100.00;96516.06;5001740;28;20081;-63
2021/05/27 05:00:21;;;;;;;3.67;3.30;;;;;;;9.39;100.00;96522.25;5002260;28;20751;-63
2021/05/27 05:02:51;;;;;;;3.95;3.45;;;;;;;9.28;100.00;96517.94;4994195;28;20092;-63
2021/05/27 05:05:20;;;;;;;3.75;3.45;;;;;;;9.42;100.00;96518.53;5000278;28;20089;-62
2021/05/27 05:07:49;;;;;;;4.40;3.50;;;;;;;9.52;100.00;96514.94;5001586;28;20057;-61
2021/05/27 05:10:19;;;;;;;3.83;3.53;;;;;;;9.61;100.00;96510.66;4998000;28;20073;-61
2021/05/27 05:12:49;;;;;;;3.33;3.13;;;;;;;9.51;100.00;96515.91;5003565;28;20070;-63
2021/05/27 05:15:18;;;;;;;5.68;3.47;;;;;;;9.66;100.00;96511.06;5000707;28;20595;-64
2021/05/27 05:17:49;;;;;;;4.18;3.88;;;;;;;9.63;100.00;96510.50;5003358;28;20140;-63
2021/05/27 05:20:18;;;;;;;;;;;;;;;9.66;100.00;96516.34;5004254;28;20078;-62
2021/05/27 05:22:46;;;;;;;5.53;3.53;;;;;;;9.89;100.00;96510.81;5000334;28;19968;-62
2021/05/27 05:25:14;;;;;;;3.15;2.90;;;;;;;9.77;100.00;96511.91;5002373;28;20119;-62
2021/05/27 05:27:44;;;;;;;5.82;3.47;;;;;;;10.11;100.00;96513.13;5000993;28;20081;-62
2021/05/27 05:30:14;;;;;;;3.35;3.05;;;;;;;10.07;100.00;96514.41;4998362;28;20080;-62
2021/05/27 05:32:43;;;;;;;;;;;;;;;10.06;100.00;96519.81;5002022;28;20065;-63
2021/05/27 05:35:12;;;;;;;3.20;2.90;;;;;;;10.21;100.00;96521.88;5000096;28;21023;-62
2021/05/27 05:37:41;;;;;;;3.55;3.25;;;;;;;9.92;100.00;96518.44;4999092;28;20137;-62
2021/05/27 05:40:11;;;;;;;4.20;2.92;;;;;;;9.80;100.00;96525.63;5000302;28;20077;-62
2021/05/27 05:42:39;;;;;;;3.97;2.88;;;;;;;9.91;100.00;96532.56;5002690;28;20752;-63
2021/05/27 05:45:09;;;;;;;2.92;2.70;;;;;;;9.99;100.00;96536.19;5000581;28;20509;-63
2021/05/27 05:47:37;;;;;;;3.10;2.80;;;;;;;10.05;100.00;96531.31;5000871;28;20061;-62
2021/05/27 05:50:07;;;;;;;3.35;3.03;;;;;;;9.97;100.00;96532.84;5000818;28;20111;-62
2021/05/27 05:52:37;;;;;;;3.70;3.03;;;;;;;10.08;100.00;96531.03;4999271;28;20477;-62
2021/05/27 05:55:07;;;;;;;3.80;2.75;;;;;;;10.34;100.00;96532.16;4998435;28;20100;-62
2021/05/27 05:57:35;;;;;;;3.30;3.00;;;;;;;10.20;100.00;96532.56;5004620;28;20085;-62
2021/05/27 06:00:06;;;;;;;4.03;3.00;;;;;;;10.33;100.00;96538.41;5001053;28;20479;-62
2021/05/27 06:02:34;;;;;;;3.42;3.13;;;;;;;10.33;100.00;96535.78;4996527;28;20042;-62
2021/05/27 06:05:02;;;;;;;3.58;2.80;;;;;;;10.39;100.00;96534.34;5004527;28;20080;-62
2021/05/27 06:07:30;;;;;;;3.00;2.80;;;;;;;10.60;100.00;96532.38;5003853;28;20096;-62
2021/05/27 06:09:58;;;;;;;3.05;2.85;;;;;;;10.48;100.00;96533.50;5002189;28;20089;-62
2021/05/27 06:12:27;;;;;;;5.95;3.25;;;;;;;10.51;100.00;96530.59;5007361;28;20081;-61
2021/05/27 06:14:55;;;;;;;4.10;2.97;;;;;;;10.47;100.00;96533.66;5002721;28;20537;-62
2021/05/27 06:17:23;;;;;;;4.43;2.60;;;;;;;10.25;100.00;96532.13;5000186;28;20065;-62
2021/05/27 06:19:51;;;;;;;2.85;2.65;;;;;;;10.41;100.00;96532.41;5003486;28;20080;-62
2021/05/27 06:22:19;;;;;;;3.08;2.60;;;;;;;10.32;100.00;96533.25;5002770;28;20065;-62
2021/05/27 06:24:47;;;;;;;2.53;2.33;;;;;;;10.60;100.00;96540.31;5003688;28;20081;-62
2021/05/27 06:27:15;;;;;;;3.30;2.70;;;;;;;10.57;100.00;96540.59;5002157;28;20322;-62
2021/05/27 06:29:44;;;;;;;2.55;2.35;;;;;;;10.53;100.00;96543.63;5005465;28;20088;-62
2021/05/27 06:32:12;;;;;;;4.15;2.55;;;;;;;10.56;100.00;96548.63;4998490;28;20069;-62
2021/05/27 06:34:40;;;;;;;2.83;2.58;;;;;;;10.56;100.00;96541.53;5005127;28;20088;-62
2021/05/27 06:37:08;;;;;;;2.42;2.22;;;;;;;10.50;100.00;96552.66;5000622;28;20082;-62
2021/05/27 06:39:36;;;;;;;2.70;2.50;;;;;;;10.63;100.00;96555.84;5003757;28;20081;-62
2021/05/27 06:42:05;;;;;;;2.75;2.30;;;;;;;10.87;100.00;96549.22;5005636;28;20473;-62
2021/05/27 06:44:34;;;;;;;2.33;2.08;;;;;;;10.84;100.00;96539.81;5005083;28;20076;-62
2021/05/27 06:47:03;;;;;;;4.72;2.50;;;;;;;10.66;100.00;96547.63;5005552;28;20073;-62
2021/05/27 06:49:31;;;;;;;2.60;2.40;;;;;;;10.62;100.00;96543.59;5002062;28;20076;-62
2021/05/27 06:52:00;;;;;;;2.30;2.10;;;;;;;10.64;100.00;96544.31;5003437;28;20078;-62
2021/05/27 06:54:30;;;;;;;2.60;2.40;;;;;;;10.92;100.00;96547.81;5004124;28;20082;-62
2021/05/27 06:56:58;;;;;;;2.20;2.03;;;;;;;11.03;100.00;96528.34;5003599;28;20062;-62
2021/05/27 06:59:27;;;;;;;2.78;2.58;;;;;;;11.15;100.00;96529.81;5002175;28;20048;-62
2021/05/27 07:01:55;;;;;;;2.45;2.25;;;;;;;11.05;100.00;96523.75;5005096;28;20212;-62
2021/05/27 07:04:24;;;;;;;2.10;2.00;;;;;;;11.17;100.00;96535.78;5000604;28;20090;-62
2021/05/27 07:06:52;;;;;;;2.28;2.08;;;;;;;11.28;100.00;96531.28;5000457;28;20086;-63
2021/05/27 07:09:20;;;;;;;2.65;2.45;;;;;;;11.34;100.00;96544.72;5004097;28;21290;-62
2021/05/27 07:11:48;;;;;;;2.53;2.33;;;;;;;11.05;100.00;96546.69;4999602;28;20460;-62
2021/05/27 07:14:17;;;;;;;2.33;2.13;;;;;;;10.85;100.00;96543.28;5002303;28;20072;-62
2021/05/27 07:16:45;;;;;;;2.78;2.00;;;;;;;10.93;100.00;96541.56;5003538;28;20070;-62
2021/05/27 07:19:12;;;;;;;2.40;2.20;;;;;;;10.76;100.00;96555.50;5000813;28;20081;-62
2021/05/27 07:21:41;;;;;;;2.47;2.28;;;;;;;10.43;100.00;96546.31;5004310;28;20085;-62
2021/05/27 07:24:10;;;;;;;2.55;2.33;;;;;;;10.33;100.00;96559.50;4999855;28;20057;-62
2021/05/27 07:26:38;;;;;;;2.50;2.40;;;;;;;10.52;100.00;96545.44;5003114;28;20065;-62
2021/05/27 07:29:06;;;;;;;2.20;2.10;;;;;;;10.58;100.00;96550.16;5006170;28;20077;-62
2021/05/27 07:31:36;;;;;;;2.42;2.22;;;;;;;11.28;100.00;96547.09;5000284;28;20041;-62
2021/05/27 07:34:05;;;;;;;2.03;1.92;;;;;;;11.11;100.00;96543.44;4999039;28;20073;-62
2021/05/27 07:36:33;;;;;;;2.35;2.15;;;;;;;11.20;100.00;96541.75;5006289;28;20093;-62
2021/05/27 07:39:03;;;;;;;2.10;2.00;;;;;;;11.68;100.00;96556.47;4999329;28;20062;-62
2021/05/27 07:41:31;;;;;;;2.17;1.98;;;;;;;11.21;100.00;96552.13;5002070;28;20124;-62
2021/05/27 07:43:59;;;;;;;2.72;2.53;;;;;;;11.30;100.00;96559.19;5003027;28;20069;-62
2021/05/27 07:46:27;;;;;;;2.67;2.47;;;;;;;11.35;100.00;96549.00;5006437;28;20077;-62
2021/05/27 07:48:55;;;;;;;2.55;2.35;;;;;;;11.43;100.00;96540.38;4998900;28;20089;-62
2021/05/27 07:51:23;;;;;;;2.10;1.90;;;;;;;11.47;100.00;96536.44;5003282;28;20069;-62
2021/05/27 07:53:51;;;;;;;2.78;2.17;;;;;;;11.81;100.00;96539.28;5004324;28;20053;-62
2021/05/27 07:56:20;;;;;;;1.98;1.88;;;;;;;12.16;100.00;96542.94;5002026;28;20069;-62
2021/05/27 07:58:48;;;;;;;2.20;2.00;;;;;;;11.80;100.00;96539.41;5001029;28;20081;-62
2021/05/27 08:01:16;;;;;;;2.38;2.17;;;;;;;12.01;100.00;96550.56;5006665;28;20054;-62
2021/05/27 08:03:44;;;;;;;3.00;2.25;;;;;;;12.35;100.00;96548.06;5005116;28;20078;-61
2021/05/27 08:06:13;;;;;;;2.63;2.30;;;;;;;12.48;100.00;96550.28;4995196;28;20675;-62
2021/05/27 08:08:41;;;;;;;2.25;2.05;;;;;;;12.11;100.00;96551.34;5000411;28;20081;-61
2021/05/27 08:11:09;;;;;;;2.35;2.15;;;;;;;12.76;100.00;96553.63;5001514;28;20456;-61
2021/05/27 08:13:38;;;;;;;1.98;1.88;;;;;;;12.61;100.00;96557.81;5001957;28;20093;-62
2021/05/27 08:16:07;;;;;;;2.40;2.20;;;;;;;12.16;100.00;96555.31;5000269;28;20086;-62
2021/05/27 08:18:35;;;;;;;3.05;1.95;;;;;;;11.87;100.00;96559.88;5004961;28;20500;-62
2021/05/27 08:21:04;;;;;;;2.15;2.05;;;;;;;12.03;100.00;96556.53;5001437;28;20100;-61
2021/05/27 08:23:32;;;;;;;2.85;2.03;;;;;;;12.08;100.00;96559.56;4999546;28;20065;-62
2021/05/27 08:26:00;;;;;;;2.50;2.30;;;;;;;12.01;100.00;96562.94;5000568;28;20076;-62
2021/05/27 08:28:28;;;;;;;2.88;2.45;;;;;;;11.79;100.00;96565.00;5001637;28;20078;-62
2021/05/27 08:30:57;;;;;;;2.83;2.53;;;;;;;11.69;100.00;96569.53;5000168;28;20090;-62
2021/05/27 08:33:25;;;;;;;2.20;2.00;;;;;;;11.74;100.00;96567.28;4999008;28;20074;-61
2021/05/27 08:35:53;;;;;;;2.55;2.33;;;;;;;11.52;100.00;96571.16;5002966;28;20066;-61
2021/05/27 08:38:21;;;;;;;1.98;1.73;;;;;;;11.69;100.00;96572.16;5000443;28;20070;-61
2021/05/27 08:40:51;;;;;;;2.58;2.38;;;;;;;11.71;100.00;96574.69;5001016;28;20088;-62
2021/05/27 08:43:21;;;;;;;2.50;2.00;;;;;;;11.72;100.00;96574.53;5001146;28;20072;-62
2021/05/27 08:45:50;;;;;;;3.10;2.20;;;;;;;11.76;100.00;96577.69;5004535;28;20085;-61
2021/05/27 08:48:19;;;;;;;2.30;2.10;;;;;;;11.46;100.00;96576.19;5004910;28;20278;-61
2021/05/27 08:50:47;;;;;;;2.50;1.97;;;;;;;11.77;100.00;96579.38;4984815;28;20104;-61
2021/05/27 08:53:17;;;;;;;2.63;2.42;;;;;;;11.65;100.00;96579.56;4996619;28;20520;-61
2021/05/27 08:55:45;;;;;;;2.90;2.63;;;;;;;11.77;100.00;96579.38;5003265;28;20161;-61
2021/05/27 08:58:14;;;;;;;4.88;2.70;;;;;;;11.64;100.00;96593.75;5002595;28;20512;-62
2021/05/27 09:00:42;;;;;;;2.38;2.20;;;;;;;11.34;100.00;96594.88;5003180;28;20100;-61
2021/05/27 09:03:13;;;;;;;2.95;2.47;;;;;;;11.11;100.00;96597.06;5003539;28;20081;-62
2021/05/27 09:05:42;;;;;;;3.42;2.50;;;;;;;11.03;100.00;96601.41;5001775;28;20073;-62
2021/05/27 09:08:25;;;;;;;4.72;2.53;;;;;;;11.07;100.00;96605.41;4995177;28;20058;-62
2021/05/27 09:10:55;;;;;;;2.60;2.40;;;;;;;10.91;100.00;96608.66;5000398;28;20074;-63
2021/05/27 09:13:23;;;;;;;3.92;3.05;;;;;;;10.97;100.00;96612.53;4998333;28;20070;-62
2021/05/27 09:15:52;;;;;;;3.05;2.45;;;;;;;11.15;100.00;96611.63;5001940;28;20100;-61
2021/05/27 09:18:29;;;;;;;2.42;2.22;;;;;;;11.30;100.00;96616.44;5002554;28;20351;-62
2021/05/27 09:20:58;;;;;;;2.72;2.45;;;;;;;10.93;100.00;96607.53;4999346;28;20077;-61
2021/05/27 09:23:27;;;;;;;2.80;2.17;;;;;;;10.75;100.00;96619.78;5002285;28;20070;-62
2021/05/27 09:25:59;;;;;;;3.67;2.50;;;;;;;10.75;100.00;96627.72;5001164;28;20066;-62
2021/05/27 09:28:28;;;;;;;2.65;2.40;;;;;;;10.63;100.00;96620.91;4998104;28;20083;-62
2021/05/27 09:30:58;;;;;;;2.70;2.50;;;;;;;10.50;100.00;96612.50;5004963;28;20085;-62
2021/05/27 09:33:30;;;;;;;2.88;2.50;;;;;;;10.80;100.00;96622.00;5003396;28;20085;-62
2021/05/27 09:36:04;;;;;;;3.08;2.35;;;;;;;11.15;100.00;96621.38;4996888;28;20068;-62
2021/05/27 09:38:34;;;;;;;3.42;2.53;;;;;;;11.30;100.00;96619.91;5003211;28;20073;-62
2021/05/27 09:41:14;;;;;;;3.42;2.40;;;;;;;11.54;100.00;96629.97;5008498;28;20076;-62
2021/05/27 09:43:43;;;;;;;3.00;2.70;;;;;;;11.35;100.00;96624.75;5004220;28;20053;-62
2021/05/27 09:46:11;;;;;;;2.95;2.60;;;;;;;11.53;100.00;96620.38;5006272;28;20574;-62
2021/05/27 09:48:39;;;;;;;2.72;2.35;;;;;;;11.70;100.00;96618.75;5005795;28;20093;-63
2021/05/27 09:51:08;;;;;;;3.55;2.80;;;;;;;11.54;100.00;96605.34;5004571;28;20081;-62
2021/05/27 09:53:36;;;;;;;2.30;2.10;;;;;;;11.33;100.00;96603.78;5003074;28;20068;-62
2021/05/27 09:56:05;;;;;;;3.40;2.40;;;;;;;11.31;100.00;96608.38;5004962;28;20065;-62
2021/05/27 09:58:33;;;;;;;4.13;2.57;;;;;;;11.26;100.00;96612.44;5000004;28;20065;-63
2021/05/27 10:01:08;;;;;;;2.33;2.13;;;;;;;11.71;100.00;96616.94;5005022;28;20480;-62
2021/05/27 10:03:38;;;;;;;3.83;2.20;;;;;;;11.87;100.00;96607.44;5005225;28;20093;-62
2021/05/27 10:06:09;;;;;;;5.05;2.90;;;;;;;11.95;100.00;96619.88;5005165;28;20468;-62
2021/05/27 10:08:54;;;;;;;3.72;2.05;;;;;;;12.56;100.00;96611.22;5006277;28;20078;-62
2021/05/27 10:11:24;;;;;;;4.03;2.30;;;;;;;12.18;100.00;96603.56;5002374;28;20073;-63
2021/05/27 10:13:54;;;;;;;2.80;2.20;;;;;;;12.85;100.00;96598.69;5003856;28;20524;-62
2021/05/27 10:16:23;;;;;;;4.15;2.30;;;;;;;12.68;100.00;96605.66;5002765;28;20072;-62
2021/05/27 10:18:54;;;;;;;3.50;2.08;;;;;;;12.53;100.00;96597.47;5003494;28;20077;-63
2021/05/27 10:21:24;;;;;;;2.30;1.85;;;;;;;12.26;100.00;96587.81;5005825;28;20285;-62
2021/05/27 10:23:53;;;;;;;2.08;1.88;;;;;;;12.91;100.00;96590.13;5006334;28;20475;-63
2021/05/27 10:26:22;;;;;;;3.00;1.90;;;;;;;13.20;100.00;96585.31;5004354;28;20081;-63
2021/05/27 10:29:10;;;;;;;2.03;1.70;;;;;;;13.41;100.00;96592.06;5002166;28;20038;-62
2021/05/27 10:31:45;;;;;;;2.30;2.10;;;;;;;13.61;100.00;96588.16;5003440;28;20065;-62
2021/05/27 10:34:45;;;;;;;2.50;2.10;;;;;;;13.44;100.00;96594.38;5003563;28;20465;-62
2021/05/27 10:37:48;;;;;;;1.75;1.38;;;;;;;13.33;100.00;96606.09;4998511;28;20519;-62
2021/05/27 10:40:35;;;;;;;2.30;2.10;;;;;;;13.45;100.00;96602.16;5005907;28;20072;-62
2021/05/27 10:43:13;;;;;;;3.80;2.10;;;;;;;12.90;100.00;96605.16;5000921;28;20089;-62
2021/05/27 10:46:02;;;;;;;2.72;1.95;;;;;;;12.70;100.00;96604.53;5002153;28;20520;-62
2021/05/27 10:48:30;;;;;;;2.40;1.70;;;;;;;12.25;100.00;96604.63;5002947;28;21370;-62
2021/05/27 10:51:09;;;;;;;2.88;2.03;;;;;;;12.38;100.00;96604.25;5001637;28;20070;-62
2021/05/27 10:53:57;;;;;;;2.17;1.98;;;;;;;12.42;100.00;96611.75;5003203;28;20161;-62
2021/05/27 10:56:46;;;;;;;2.10;1.90;;;;;;;12.30;100.00;96597.09;4999534;28;20131;-62
2021/05/27 10:59:15;;;;;;;3.30;2.28;;;;;;;12.86;100.00;96598.50;5002653;28;20069;-62
2021/05/27 11:01:57;;;;;;;2.80;2.03;;;;;;;12.58;100.00;96603.09;5001193;28;20073;-62
2021/05/27 11:04:42;;;;;;;2.08;1.77;;;;;;;12.67;100.00;96612.78;5006537;28;20411;-62
2021/05/27 11:07:18;;;;;;;2.13;1.90;;;;;;;12.75;100.00;96601.41;5005949;28;20092;-62
2021/05/27 11:09:48;;;;;;;1.98;1.65;;;;;;;12.77;100.00;96604.75;5003120;28;20074;-62
2021/05/27 11:12:35;;;;;;;2.28;2.08;;;;;;;12.49;100.00;96602.22;4998856;28;20472;-62
2021/05/27 11:15:14;;;;;;;2.25;2.05;;;;;;;12.25;100.00;96600.19;5005118;28;20485;-61
2021/05/27 11:17:43;;;;;;;2.35;1.98;;;;;;;12.35;100.00;96603.59;5002255;28;20542;-62
2021/05/27 11:20:18;;;;;;;3.53;2.13;;;;;;;12.31;100.00;96596.09;5001101;28;20069;-62
2021/05/27 11:22:56;;;;;;;2.72;2.20;;;;;;;12.65;100.00;96606.78;5004520;28;20567;-62
2021/05/27 11:25:34;;;;;;;3.40;2.08;;;;;;;12.76;100.00;96597.78;5003174;28;20066;-62
2021/05/27 11:28:36;;;;;;;2.83;2.20;;;;;;;13.09;100.00;96593.53;4996094;28;20104;-62
2021/05/27 11:31:06;;;;;;;2.60;2.40;;;;;;;13.21;100.00;96579.03;5003819;28;20093;-62
2021/05/27 11:33:38;;;;;;;3.67;2.25;;;;;;;13.51;100.00;96577.69;5003343;28;20142;-62
2021/05/27 11:36:18;;;;;;;2.03;1.92;;;;;;;13.74;100.00;96572.66;5003648;28;20441;-62
2021/05/27 11:38:46;;;;;;;2.33;2.13;;;;;;;13.12;100.00;96577.34;5003489;28;20066;-62
2021/05/27 11:41:17;;;;;;;2.47;2.28;;;;;;;13.76;100.00;96564.50;5000429;28;20130;-62
2021/05/27 11:43:48;;;;;;;2.40;2.20;;;;;;;13.91;100.00;96568.22;5001882;28;20061;-62
2021/05/27 11:46:18;;;;;;;3.25;2.20;;;;;;;14.03;100.00;96558.13;4985931;28;20477;-62
2021/05/27 11:48:57;;;;;;;2.53;2.25;;;;;;;13.99;100.00;96562.09;5005216;28;20524;-62
2021/05/27 11:51:33;;;;;;;2.35;2.15;;;;;;;14.14;100.00;96567.56;5003133;28;20474;-62